Armavir, Armenia

8:54 AM +04 on May 27, 2017 (GMT +0400)
Zvartnots | | Change Station

Elev 2838 ft 40.15 °N, 44.40 °E | Updated 24 minutes ago

Mostly Cloudy
Mostly Cloudy
63 °F
Feels Like 63 °F
N
4
Wind Variable Wind from East

Today
High -- | Low -- °F
--% Chance of Precip.
Yesterday
High -- | Low -- °F
Precip. -- in
Pressure 29.98 in
Visibility 6.2 miles
Clouds Few 4300 ft
Dew Point 55 °F
Humidity 77%
Rainfall 0.00 in
Snow Depth Not available.
5:39 AM 8:22 PM
Waxing Crescent, 3% visible
METAR UDYZ 270430Z 08003KT 9999 FEW043 17/13 Q1015 R09/29//60 NOSIG
Pressure 29.98 in
Visibility 6.2 miles
Clouds Few 4300 ft
Dew Point 55 °F
Humidity 77%
Rainfall 0.00 in
Snow Depth Not available.
5:39 AM 8:22 PM
Waxing Crescent, 3% visible
METAR UDYZ 270430Z 08003KT 9999 FEW043 17/13 Q1015 R09/29//60 NOSIG

Get Severe Weather Alerts

Thanks for signing up!

Be on the lookout for a verification email in your inbox.

You'll start receiving the daily forecast at 6 AM.

×

10-Day Weather Forecast

×

Almanac

Astronomy

May. 27, 2017 Rise Set
Actual Time
Civil Twilight
Nautical Twilight
Astronomical Twilight
Moon
Length of Visible Light
Length of Day
Tomorrow will be .
, % of the Moon is Illuminated

Today's Extremes

Country Highs Country Lows

Community

WunderPhotos

Category 6

Welcome to Category 6. This is the collective home for Weather Underground's featured writeups by Dr. Jeff Masters (right), Bob Henson (left), Chris Burt, and other regular contributors.

Nearby

Air Quality

  Air Quality AQ Index Pollutant
Not available.

Snow Depth

Station Depth Elevation

Earthquake Activity

City Distance Mag. Time & Date
Minimum magnitude displayed is 2.5.

Coastal Water Temperatures

Place Temperature

Stations

Nearby Weather Stations

Station Location Temp. Windchill Dew Point Humidity Wind Precip. Elev Updated Type